createdAt,value
2023-05-19T00:02:05.812Z,3.55
2023-05-19T00:04:51.478Z,2.90
2023-05-19T00:07:38.785Z,2.47
2023-05-19T00:10:24.394Z,2.90
2023-05-19T00:13:09.511Z,2.97
2023-05-19T00:15:55.016Z,3.15
2023-05-19T00:18:40.645Z,2.78
2023-05-19T00:21:25.911Z,3.20
2023-05-19T00:24:10.626Z,2.65
2023-05-19T00:26:55.454Z,2.88
2023-05-19T00:29:40.518Z,2.90
2023-05-19T00:32:25.520Z,2.80
2023-05-19T00:35:11.458Z,3.25
2023-05-19T00:37:56.293Z,3.25
2023-05-19T00:40:41.421Z,3.35
2023-05-19T00:43:27.072Z,3.00
2023-05-19T00:46:12.082Z,3.35
2023-05-19T00:48:57.338Z,2.80
2023-05-19T00:51:42.431Z,3.35
2023-05-19T00:54:28.947Z,3.80
2023-05-19T00:57:14.597Z,3.55
2023-05-19T00:59:59.562Z,3.25
2023-05-19T01:02:44.773Z,3.88
2023-05-19T01:05:29.832Z,3.83
2023-05-19T01:08:15.208Z,4.03
2023-05-19T01:11:00.604Z,3.25
2023-05-19T01:13:45.978Z,4.00
2023-05-19T01:16:37.437Z,3.60
2023-05-19T01:19:36.881Z,3.17
2023-05-19T01:22:43.180Z,2.38
2023-05-19T01:25:50.713Z,3.78
2023-05-19T01:29:02.647Z,3.45
2023-05-19T01:31:50.463Z,3.53
2023-05-19T01:34:40.033Z,3.55
2023-05-19T01:37:27.222Z,4.38
2023-05-19T01:40:12.742Z,4.00
2023-05-19T01:43:01.061Z,4.10
2023-05-19T01:45:47.184Z,3.90
2023-05-19T01:48:33.391Z,3.58
2023-05-19T01:51:18.696Z,4.05
2023-05-19T01:54:03.910Z,3.97
2023-05-19T01:57:04.271Z,4.57
2023-05-19T02:00:05.695Z,4.10
2023-05-19T02:03:05.215Z,3.80
2023-05-19T02:06:05.064Z,4.93
2023-05-19T02:09:27.254Z,4.03
2023-05-19T02:12:28.371Z,3.65
2023-05-19T02:15:21.124Z,3.78
2023-05-19T02:18:09.422Z,4.03
2023-05-19T02:20:54.446Z,4.20
2023-05-19T02:23:42.521Z,4.47
2023-05-19T02:26:27.707Z,4.10
2023-05-19T02:29:12.730Z,3.67
2023-05-19T02:31:58.730Z,4.40
2023-05-19T02:34:45.493Z,4.90
2023-05-19T02:37:31.125Z,3.92
2023-05-19T02:40:17.451Z,3.97
2023-05-19T02:43:02.539Z,3.75
2023-05-19T02:45:47.344Z,3.60
2023-05-19T02:48:32.251Z,3.65
2023-05-19T02:51:17.056Z,4.03
2023-05-19T02:54:02.267Z,3.80
2023-05-19T02:56:47.223Z,3.65
2023-05-19T02:59:32.197Z,4.10
2023-05-19T03:02:17.411Z,4.60
2023-05-19T03:05:03.815Z,4.88
2023-05-19T03:07:48.891Z,4.03
2023-05-19T03:10:34.085Z,4.07
2023-05-19T03:13:19.563Z,3.75
2023-05-19T03:16:04.867Z,4.10
2023-05-19T03:18:51.000Z,4.35
2023-05-19T03:21:36.633Z,4.35
2023-05-19T03:24:21.908Z,3.90
2023-05-19T03:27:07.065Z,4.22
2023-05-19T03:29:52.819Z,4.03
2023-05-19T03:32:38.079Z,4.57
2023-05-19T03:35:23.468Z,4.60
2023-05-19T03:38:08.541Z,4.53
2023-05-19T03:40:53.767Z,5.70
2023-05-19T03:43:38.809Z,4.47
2023-05-19T03:46:23.865Z,4.65
2023-05-19T03:49:09.358Z,3.92
2023-05-19T03:51:54.614Z,4.20
2023-05-19T03:54:39.721Z,3.88
2023-05-19T03:57:25.144Z,4.28
2023-05-19T04:00:11.324Z,4.20
2023-05-19T04:02:56.789Z,4.28
2023-05-19T04:05:42.101Z,4.30
2023-05-19T04:08:27.480Z,3.70
2023-05-19T04:11:12.494Z,4.10
2023-05-19T04:13:57.787Z,4.00
2023-05-19T04:16:43.033Z,4.03
2023-05-19T04:19:28.356Z,4.25
2023-05-19T04:22:13.340Z,4.40
2023-05-19T04:24:59.180Z,4.20
2023-05-19T04:27:44.503Z,4.60
2023-05-19T04:30:29.583Z,4.20
2023-05-19T04:33:14.916Z,4.68
2023-05-19T04:36:05.401Z,4.20
2023-05-19T04:38:54.709Z,4.55
2023-05-19T04:41:44.761Z,4.78
2023-05-19T04:44:30.089Z,5.00
2023-05-19T04:47:15.551Z,5.05
2023-05-19T04:50:00.807Z,5.25
2023-05-19T04:52:46.525Z,5.32
2023-05-19T04:55:32.808Z,5.30
2023-05-19T04:58:18.386Z,6.20
2023-05-19T05:01:03.867Z,6.10
2023-05-19T05:03:48.709Z,5.93
2023-05-19T05:06:34.148Z,5.53
2023-05-19T05:09:19.986Z,5.65
2023-05-19T05:12:07.686Z,5.53
2023-05-19T05:14:52.860Z,5.20
2023-05-19T05:17:37.973Z,5.30
2023-05-19T05:20:23.896Z,5.50
2023-05-19T05:23:10.090Z,5.57
2023-05-19T05:25:55.673Z,5.45
2023-05-19T05:28:41.573Z,5.78
2023-05-19T05:31:26.467Z,5.75
2023-05-19T05:34:11.909Z,6.10
2023-05-19T05:36:57.199Z,5.43
2023-05-19T05:39:42.341Z,6.93
2023-05-19T05:42:29.625Z,5.57
2023-05-19T05:45:14.972Z,5.70
2023-05-19T05:48:00.098Z,6.45
2023-05-19T05:50:46.323Z,7.03
2023-05-19T05:53:37.347Z,6.85
2023-05-19T05:56:22.817Z,6.45
2023-05-19T05:59:08.050Z,7.47
2023-05-19T06:01:53.238Z,7.18
2023-05-19T06:04:38.645Z,7.60
2023-05-19T06:07:24.312Z,6.63
2023-05-19T06:10:10.268Z,7.18
2023-05-19T06:12:55.867Z,7.32
2023-05-19T06:15:41.181Z,8.15
2023-05-19T06:18:26.381Z,7.47
2023-05-19T06:21:13.197Z,7.40
2023-05-19T06:23:58.284Z,7.40
2023-05-19T06:26:43.346Z,7.60
2023-05-19T06:29:28.471Z,8.48
2023-05-19T06:32:13.724Z,7.53
2023-05-19T06:34:59.074Z,6.45
2023-05-19T06:37:44.378Z,7.68
2023-05-19T06:40:29.720Z,7.25
2023-05-19T06:43:14.789Z,7.47
2023-05-19T06:45:59.741Z,6.80
2023-05-19T06:48:44.622Z,6.63
2023-05-19T06:51:29.631Z,6.82
2023-05-19T06:54:16.125Z,7.15
2023-05-19T06:57:01.396Z,6.40
2023-05-19T06:59:46.779Z,5.65
2023-05-19T07:02:31.863Z,6.22
2023-05-19T07:05:17.599Z,6.75
2023-05-19T07:08:02.542Z,5.70
2023-05-19T07:10:47.442Z,6.32
2023-05-19T07:13:32.976Z,5.95
2023-05-19T07:16:18.194Z,5.82
2023-05-19T07:19:03.357Z,6.30
2023-05-19T07:21:48.684Z,6.43
2023-05-19T07:24:33.661Z,6.32
2023-05-19T07:27:18.573Z,6.82
2023-05-19T07:30:04.323Z,6.80
2023-05-19T07:32:49.658Z,7.20
2023-05-19T07:35:35.055Z,6.20
2023-05-19T07:38:20.481Z,6.95
2023-05-19T07:41:05.556Z,7.18
2023-05-19T07:43:50.814Z,6.60
2023-05-19T07:46:36.607Z,7.78
2023-05-19T07:49:21.888Z,6.60
2023-05-19T07:52:07.180Z,6.40
2023-05-19T07:54:53.112Z,7.47
2023-05-19T07:57:38.189Z,7.15
2023-05-19T08:00:23.346Z,6.50
2023-05-19T08:03:12.223Z,6.38
2023-05-19T08:05:57.465Z,6.63
2023-05-19T08:08:42.738Z,6.63
2023-05-19T08:11:28.077Z,6.60
2023-05-19T08:14:13.139Z,6.70
2023-05-19T08:16:58.353Z,6.65
2023-05-19T08:19:43.454Z,6.18
2023-05-19T08:22:28.441Z,6.82
2023-05-19T08:25:13.833Z,6.30
2023-05-19T08:27:58.835Z,5.75
2023-05-19T08:30:43.825Z,5.90
2023-05-19T08:33:28.808Z,6.10
2023-05-19T08:36:13.946Z,5.97
2023-05-19T08:38:59.155Z,5.72
2023-05-19T08:41:44.155Z,5.22
2023-05-19T08:44:30.815Z,5.50
2023-05-19T08:47:17.141Z,5.80
2023-05-19T08:50:10.939Z,5.55
2023-05-19T08:53:02.327Z,5.82
2023-05-19T08:55:55.288Z,5.07
2023-05-19T08:58:42.570Z,6.00
2023-05-19T09:01:30.241Z,6.10
2023-05-19T09:04:17.038Z,5.60
2023-05-19T09:07:03.941Z,5.50
2023-05-19T09:09:49.187Z,6.18
2023-05-19T09:12:34.697Z,4.65
2023-05-19T09:15:20.105Z,4.88
2023-05-19T09:18:17.315Z,5.15
2023-05-19T09:21:02.652Z,4.90
2023-05-19T09:23:49.630Z,5.07
2023-05-19T09:26:39.212Z,5.25
2023-05-19T09:32:10.294Z,5.13
2023-05-19T09:34:55.221Z,4.38
2023-05-19T09:37:41.446Z,4.28
2023-05-19T09:40:28.732Z,4.68
2023-05-19T09:43:13.670Z,3.67
2023-05-19T09:46:12.200Z,3.95
2023-05-19T09:48:59.500Z,3.67
2023-05-19T09:51:44.717Z,3.67
2023-05-19T09:54:32.104Z,3.80
2023-05-19T09:57:17.748Z,3.00
2023-05-19T10:00:11.984Z,3.00
2023-05-19T10:02:58.495Z,3.25
2023-05-19T10:05:44.462Z,2.85
2023-05-19T10:08:30.593Z,2.80
2023-05-19T10:11:17.262Z,2.47
2023-05-19T10:14:04.029Z,2.90
2023-05-19T10:16:51.252Z,2.60
2023-05-19T10:19:37.872Z,2.85
2023-05-19T10:22:22.974Z,3.10
2023-05-19T10:25:09.973Z,3.10
2023-05-19T10:28:03.670Z,3.08
2023-05-19T10:30:53.207Z,3.25
2023-05-19T10:33:50.086Z,2.88
2023-05-19T10:36:47.712Z,3.15
2023-05-19T10:39:37.499Z,3.22
2023-05-19T10:45:21.099Z,3.47
2023-05-19T10:48:11.169Z,3.35
2023-05-19T10:50:56.935Z,3.40
2023-05-19T10:53:46.365Z,2.83
2023-05-19T10:56:36.144Z,3.38
2023-05-19T10:59:34.509Z,3.50
2023-05-19T11:02:41.916Z,3.53
2023-05-19T11:05:30.807Z,3.28
2023-05-19T11:08:17.875Z,3.40
2023-05-19T11:11:45.661Z,3.17
2023-05-19T11:14:32.577Z,3.63
2023-05-19T11:17:21.189Z,3.08
2023-05-19T11:20:08.921Z,3.55
2023-05-19T11:23:07.463Z,3.53
2023-05-19T11:25:56.174Z,3.03
2023-05-19T11:28:41.636Z,3.38
2023-05-19T11:31:28.124Z,4.10
2023-05-19T11:34:13.893Z,3.70
2023-05-19T11:36:59.431Z,3.95
2023-05-19T11:39:46.431Z,3.70
2023-05-19T11:42:32.154Z,4.00
2023-05-19T11:45:17.140Z,4.03
2023-05-19T11:48:05.398Z,3.80
2023-05-19T11:50:51.034Z,4.03
2023-05-19T11:53:36.495Z,3.67
2023-05-19T11:56:21.577Z,3.50
2023-05-19T11:59:06.691Z,3.58
2023-05-19T12:01:52.024Z,3.72
2023-05-19T12:04:37.002Z,3.65
2023-05-19T12:07:23.957Z,4.35
2023-05-19T12:10:10.007Z,4.45
2023-05-19T12:12:55.243Z,4.32
2023-05-19T12:15:40.272Z,4.10
2023-05-19T12:18:29.143Z,4.40
2023-05-19T12:21:15.114Z,4.43
2023-05-19T12:24:00.563Z,4.45
2023-05-19T12:26:45.642Z,4.95
2023-05-19T12:29:31.755Z,4.90
2023-05-19T12:32:16.615Z,5.13
2023-05-19T12:35:04.749Z,5.57
2023-05-19T12:37:50.699Z,4.47
2023-05-19T12:40:36.611Z,4.47
2023-05-19T12:43:22.921Z,4.60
2023-05-19T12:46:13.117Z,4.65
2023-05-19T12:49:01.030Z,4.95
2023-05-19T12:51:52.762Z,5.80
2023-05-19T12:54:38.663Z,5.47
2023-05-19T12:57:23.852Z,4.97
2023-05-19T13:00:19.303Z,5.30
2023-05-19T13:03:06.762Z,4.20
2023-05-19T13:05:51.837Z,4.68
2023-05-19T13:08:39.112Z,4.07
2023-05-19T13:11:24.145Z,4.63
2023-05-19T13:14:09.839Z,4.72
2023-05-19T13:16:54.707Z,4.80
2023-05-19T13:19:39.690Z,5.00
2023-05-19T13:22:25.222Z,5.35
2023-05-19T13:25:10.707Z,5.00
2023-05-19T13:27:56.688Z,4.53
2023-05-19T13:30:43.852Z,4.40
2023-05-19T13:33:28.925Z,4.53
2023-05-19T13:36:13.697Z,4.78
2023-05-19T13:38:58.818Z,5.00
2023-05-19T13:41:43.897Z,4.63
2023-05-19T13:44:28.962Z,4.22
2023-05-19T13:47:14.376Z,4.85
2023-05-19T13:49:59.634Z,4.38
2023-05-19T13:52:44.939Z,4.30
2023-05-19T13:55:30.030Z,4.35
2023-05-19T13:58:16.879Z,4.28
2023-05-19T14:01:01.990Z,4.45
2023-05-19T14:03:47.288Z,3.97
2023-05-19T14:06:33.193Z,4.45
2023-05-19T14:09:18.117Z,4.10
2023-05-19T14:12:03.589Z,4.70
2023-05-19T14:14:50.017Z,4.38
2023-05-19T14:17:35.339Z,4.88
2023-05-19T14:20:20.679Z,5.53
2023-05-19T14:23:05.830Z,4.97
2023-05-19T14:25:51.214Z,5.00
2023-05-19T14:28:36.304Z,5.07
2023-05-19T14:31:21.167Z,4.85
2023-05-19T14:34:06.578Z,5.45
2023-05-19T14:36:51.583Z,4.65
2023-05-19T14:39:36.676Z,5.30
2023-05-19T14:42:21.839Z,4.97
2023-05-19T14:45:07.545Z,4.82
2023-05-19T14:47:53.027Z,5.30
2023-05-19T14:50:38.859Z,4.85
2023-05-19T14:53:24.112Z,4.90
2023-05-19T14:56:09.368Z,5.28
2023-05-19T14:58:54.546Z,5.30
2023-05-19T15:01:39.502Z,4.47
2023-05-19T15:04:24.985Z,4.90
2023-05-19T15:07:11.124Z,4.45
2023-05-19T15:09:57.630Z,5.05
2023-05-19T15:12:43.095Z,4.90
2023-05-19T15:15:28.362Z,4.50
2023-05-19T15:18:16.205Z,4.60
2023-05-19T15:21:01.714Z,4.97
2023-05-19T15:23:46.825Z,4.78
2023-05-19T15:26:32.390Z,4.55
2023-05-19T15:29:17.426Z,4.70
2023-05-19T15:32:03.123Z,4.72
2023-05-19T15:34:48.234Z,4.78
2023-05-19T15:37:33.308Z,3.75
2023-05-19T15:40:18.202Z,4.53
2023-05-19T15:43:03.058Z,4.10
2023-05-19T15:45:48.271Z,4.60
2023-05-19T15:48:33.480Z,4.85
2023-05-19T15:51:18.660Z,4.38
2023-05-19T15:54:03.588Z,3.83
2023-05-19T15:56:48.734Z,3.95
2023-05-19T15:59:33.717Z,4.78
2023-05-19T16:02:18.639Z,4.13
2023-05-19T16:05:04.366Z,3.60
2023-05-19T16:07:49.692Z,3.50
2023-05-19T16:10:34.811Z,3.15
2023-05-19T16:13:20.164Z,3.67
2023-05-19T16:16:06.048Z,3.92
2023-05-19T16:18:51.443Z,3.95
2023-05-19T16:21:36.509Z,3.80
2023-05-19T16:24:21.530Z,3.80
2023-05-19T16:27:06.374Z,3.95
2023-05-19T16:29:51.397Z,3.97
2023-05-19T16:32:36.285Z,4.93
2023-05-19T16:35:22.064Z,3.58
2023-05-19T16:38:07.464Z,3.67
2023-05-19T16:40:52.721Z,4.07
2023-05-19T16:43:37.961Z,4.90
2023-05-19T16:46:22.916Z,4.07
2023-05-19T16:49:08.145Z,3.70
2023-05-19T16:51:54.150Z,4.95
2023-05-19T16:54:39.000Z,4.40
2023-05-19T16:57:24.565Z,4.22
2023-05-19T17:00:10.308Z,5.10
2023-05-19T17:02:55.539Z,4.90
2023-05-19T17:05:41.931Z,4.60
2023-05-19T17:08:27.192Z,4.43
2023-05-19T17:11:13.432Z,4.90
2023-05-19T17:13:58.640Z,4.32
2023-05-19T17:16:44.274Z,4.28
2023-05-19T17:19:29.502Z,4.80
2023-05-19T17:22:14.838Z,4.55
2023-05-19T17:24:59.891Z,4.15
2023-05-19T17:27:44.738Z,4.35
2023-05-19T17:30:29.806Z,4.60
2023-05-19T17:33:15.464Z,4.55
2023-05-19T17:36:03.433Z,4.13
2023-05-19T17:38:48.624Z,4.55
2023-05-19T17:41:33.511Z,4.13
2023-05-19T17:44:18.500Z,4.22
2023-05-19T17:47:03.480Z,3.55
2023-05-19T17:49:50.216Z,4.03
2023-05-19T17:52:36.208Z,3.30
2023-05-19T17:55:21.363Z,4.10
2023-05-19T17:58:06.880Z,3.85
2023-05-19T18:00:52.310Z,4.13
2023-05-19T18:03:37.584Z,3.17
2023-05-19T18:06:25.351Z,3.17
2023-05-19T18:09:11.007Z,3.50
2023-05-19T18:11:56.884Z,2.90
2023-05-19T18:14:42.035Z,3.00
2023-05-19T18:17:27.075Z,3.20
2023-05-19T18:20:12.751Z,2.78
2023-05-19T18:22:57.768Z,3.15
2023-05-19T18:25:49.462Z,3.08
2023-05-19T18:28:35.365Z,2.58
2023-05-19T18:31:20.354Z,2.95
2023-05-19T18:34:05.629Z,3.17
2023-05-19T18:36:50.899Z,2.90
2023-05-19T18:39:37.002Z,2.95
2023-05-19T18:42:22.146Z,2.75
2023-05-19T18:45:07.631Z,2.80
2023-05-19T18:47:52.958Z,2.85
2023-05-19T18:50:38.100Z,2.80
2023-05-19T18:53:23.033Z,2.53
2023-05-19T18:56:10.899Z,2.97
2023-05-19T18:58:56.035Z,2.40
2023-05-19T19:01:41.015Z,2.65
2023-05-19T19:04:26.503Z,2.65
2023-05-19T19:07:11.763Z,2.50
2023-05-19T19:09:56.958Z,2.95
2023-05-19T19:12:41.995Z,2.95
2023-05-19T19:15:28.292Z,2.65
2023-05-19T19:18:13.490Z,2.80
2023-05-19T19:20:59.585Z,2.83
2023-05-19T19:23:44.623Z,2.83
2023-05-19T19:26:29.775Z,3.28
2023-05-19T19:29:16.680Z,3.22
2023-05-19T19:32:01.998Z,2.92
2023-05-19T19:34:47.084Z,3.03
2023-05-19T19:37:32.172Z,3.22
2023-05-19T19:40:17.234Z,3.08
2023-05-19T19:43:02.420Z,3.50
2023-05-19T19:45:47.364Z,3.30
2023-05-19T19:48:33.004Z,3.97
2023-05-19T19:51:17.912Z,4.75
2023-05-19T19:54:03.043Z,3.90
2023-05-19T19:56:47.996Z,4.30
2023-05-19T19:59:33.002Z,4.70
2023-05-19T20:02:18.031Z,5.25
2023-05-19T20:05:04.194Z,4.70
2023-05-19T20:07:49.195Z,4.65
2023-05-19T20:10:34.726Z,5.60
2023-05-19T20:13:20.659Z,4.82
2023-05-19T20:16:05.692Z,5.53
2023-05-19T20:18:50.730Z,5.85
2023-05-19T20:21:36.150Z,5.40
2023-05-19T20:24:21.099Z,5.15
2023-05-19T20:27:07.291Z,4.57
2023-05-19T20:29:52.433Z,5.18
2023-05-19T20:32:37.525Z,5.05
2023-05-19T20:35:22.458Z,5.07
2023-05-19T20:38:07.589Z,5.75
2023-05-19T20:40:53.946Z,5.28
2023-05-19T20:43:38.909Z,5.82
2023-05-19T20:46:24.027Z,5.35
2023-05-19T20:49:08.930Z,4.65
2023-05-19T20:51:53.889Z,5.07
2023-05-19T20:54:38.884Z,5.57
2023-05-19T20:57:23.717Z,4.78
2023-05-19T21:00:09.561Z,5.30
2023-05-19T21:02:54.471Z,4.53
2023-05-19T21:05:39.820Z,4.50
2023-05-19T21:08:25.433Z,4.78
2023-05-19T21:11:10.577Z,4.85
2023-05-19T21:13:58.802Z,4.50
2023-05-19T21:16:43.875Z,4.22
2023-05-19T21:19:29.267Z,4.47
2023-05-19T21:22:14.773Z,4.68
2023-05-19T21:24:59.782Z,4.55
2023-05-19T21:27:46.229Z,4.25
2023-05-19T21:30:31.504Z,4.72
2023-05-19T21:33:16.940Z,4.72
2023-05-19T21:36:02.258Z,4.40
2023-05-19T21:38:47.131Z,4.47
2023-05-19T21:41:32.427Z,4.22
2023-05-19T21:44:17.851Z,4.50
2023-05-19T21:47:03.167Z,4.75
2023-05-19T21:49:48.447Z,3.97
2023-05-19T21:52:35.959Z,3.92
2023-05-19T21:55:22.003Z,4.30
2023-05-19T21:58:07.306Z,4.45
2023-05-19T22:00:57.013Z,3.97
2023-05-19T22:03:41.956Z,4.25
2023-05-19T22:06:27.065Z,4.18
2023-05-19T22:09:12.744Z,4.13
2023-05-19T22:11:58.045Z,3.95
2023-05-19T22:14:43.103Z,3.90
2023-05-19T22:17:28.882Z,3.92
2023-05-19T22:20:13.939Z,4.30
2023-05-19T22:23:01.019Z,4.07
2023-05-19T22:25:46.395Z,3.70
2023-05-19T22:28:31.671Z,4.07
2023-05-19T22:31:16.904Z,4.10
2023-05-19T22:34:01.809Z,4.15
2023-05-19T22:36:47.252Z,4.03
2023-05-19T22:39:32.162Z,4.68
2023-05-19T22:42:18.413Z,3.85
2023-05-19T22:45:04.041Z,3.88
2023-05-19T22:47:50.003Z,4.15
2023-05-19T22:50:35.004Z,3.90
2023-05-19T22:53:19.997Z,4.40
2023-05-19T22:56:05.572Z,3.70
2023-05-19T22:58:50.833Z,4.15
2023-05-19T23:01:35.847Z,3.60
2023-05-19T23:04:21.673Z,3.35
2023-05-19T23:07:06.939Z,3.53
2023-05-19T23:09:51.924Z,3.75
2023-05-19T23:12:37.224Z,3.30
2023-05-19T23:15:22.409Z,4.22
2023-05-19T23:18:08.636Z,3.60
2023-05-19T23:20:53.922Z,3.65
2023-05-19T23:23:39.079Z,3.55
2023-05-19T23:26:24.554Z,3.72
2023-05-19T23:29:13.531Z,3.70
2023-05-19T23:31:58.487Z,3.27
2023-05-19T23:34:43.465Z,3.40
2023-05-19T23:37:28.689Z,3.85
2023-05-19T23:40:15.052Z,3.33
2023-05-19T23:43:00.164Z,3.47
2023-05-19T23:45:45.435Z,4.03
2023-05-19T23:48:31.257Z,3.60
2023-05-19T23:51:16.849Z,4.40
2023-05-19T23:54:02.049Z,3.97
2023-05-19T23:56:46.856Z,3.80
2023-05-19T23:59:32.110Z,4.10
